sensor_id;sensor_type;location;lat;lon;timestamp;P1;durP1;ratioP1;P2;durP2;ratioP2
11771;SDS011;12556;55.748;13.194;2023-01-28T00:00:57;7.13;;;2.77;;
11771;SDS011;12556;55.748;13.194;2023-01-28T00:03:24;6.10;;;3.20;;
11771;SDS011;12556;55.748;13.194;2023-01-28T00:05:51;3.03;;;2.77;;
11771;SDS011;12556;55.748;13.194;2023-01-28T00:08:19;4.40;;;3.30;;
11771;SDS011;12556;55.748;13.194;2023-01-28T00:10:46;6.30;;;3.40;;
11771;SDS011;12556;55.748;13.194;2023-01-28T00:13:12;5.87;;;3.67;;
11771;SDS011;12556;55.748;13.194;2023-01-28T00:15:41;3.00;;;2.70;;
11771;SDS011;12556;55.748;13.194;2023-01-28T00:18:09;4.23;;;3.70;;
11771;SDS011;12556;55.748;13.194;2023-01-28T00:20:36;4.87;;;3.47;;
11771;SDS011;12556;55.748;13.194;2023-01-28T00:23:03;5.07;;;3.37;;
11771;SDS011;12556;55.748;13.194;2023-01-28T00:25:30;4.73;;;3.70;;
11771;SDS011;12556;55.748;13.194;2023-01-28T00:27:59;3.73;;;3.30;;
11771;SDS011;12556;55.748;13.194;2023-01-28T00:30:26;5.83;;;3.60;;
11771;SDS011;12556;55.748;13.194;2023-01-28T00:32:54;4.43;;;3.23;;
11771;SDS011;12556;55.748;13.194;2023-01-28T00:35:21;4.10;;;3.33;;
11771;SDS011;12556;55.748;13.194;2023-01-28T00:37:48;4.27;;;3.70;;
11771;SDS011;12556;55.748;13.194;2023-01-28T00:40:15;8.50;;;3.80;;
11771;SDS011;12556;55.748;13.194;2023-01-28T00:42:42;5.73;;;3.47;;
11771;SDS011;12556;55.748;13.194;2023-01-28T00:45:09;4.27;;;3.77;;
11771;SDS011;12556;55.748;13.194;2023-01-28T00:47:36;4.50;;;3.57;;
11771;SDS011;12556;55.748;13.194;2023-01-28T00:50:05;7.20;;;3.90;;
11771;SDS011;12556;55.748;13.194;2023-01-28T00:52:32;6.83;;;4.63;;
11771;SDS011;12556;55.748;13.194;2023-01-28T00:54:59;4.53;;;3.83;;
11771;SDS011;12556;55.748;13.194;2023-01-28T00:57:26;6.67;;;4.80;;
11771;SDS011;12556;55.748;13.194;2023-01-28T00:59:53;7.97;;;4.87;;
11771;SDS011;12556;55.748;13.194;2023-01-28T01:02:20;5.73;;;4.40;;
11771;SDS011;12556;55.748;13.194;2023-01-28T01:04:47;7.23;;;5.10;;
11771;SDS011;12556;55.748;13.194;2023-01-28T01:07:25;9.03;;;5.53;;
11771;SDS011;12556;55.748;13.194;2023-01-28T01:10:05;9.97;;;6.03;;
11771;SDS011;12556;55.748;13.194;2023-01-28T01:12:33;8.23;;;6.10;;
11771;SDS011;12556;55.748;13.194;2023-01-28T01:15:00;7.53;;;5.43;;
11771;SDS011;12556;55.748;13.194;2023-01-28T01:17:28;9.77;;;6.27;;
11771;SDS011;12556;55.748;13.194;2023-01-28T01:19:56;9.10;;;6.97;;
11771;SDS011;12556;55.748;13.194;2023-01-28T01:22:23;9.17;;;6.33;;
11771;SDS011;12556;55.748;13.194;2023-01-28T01:24:51;7.73;;;6.03;;
11771;SDS011;12556;55.748;13.194;2023-01-28T01:27:18;7.30;;;6.17;;
11771;SDS011;12556;55.748;13.194;2023-01-28T01:29:45;11.37;;;7.20;;
11771;SDS011;12556;55.748;13.194;2023-01-28T01:32:11;8.77;;;7.27;;
11771;SDS011;12556;55.748;13.194;2023-01-28T01:34:38;8.90;;;6.33;;
11771;SDS011;12556;55.748;13.194;2023-01-28T01:37:05;9.90;;;6.73;;
11771;SDS011;12556;55.748;13.194;2023-01-28T01:39:35;10.30;;;7.43;;
11771;SDS011;12556;55.748;13.194;2023-01-28T01:42:03;11.30;;;7.57;;
11771;SDS011;12556;55.748;13.194;2023-01-28T01:44:45;11.77;;;7.40;;
11771;SDS011;12556;55.748;13.194;2023-01-28T01:47:21;10.00;;;7.13;;
11771;SDS011;12556;55.748;13.194;2023-01-28T01:49:50;11.33;;;7.20;;
11771;SDS011;12556;55.748;13.194;2023-01-28T01:52:18;9.90;;;7.00;;
11771;SDS011;12556;55.748;13.194;2023-01-28T01:54:51;10.37;;;6.93;;
11771;SDS011;12556;55.748;13.194;2023-01-28T01:57:22;8.90;;;6.07;;
11771;SDS011;12556;55.748;13.194;2023-01-28T01:59:54;13.37;;;6.57;;
11771;SDS011;12556;55.748;13.194;2023-01-28T02:02:29;12.47;;;6.23;;
11771;SDS011;12556;55.748;13.194;2023-01-28T02:05:00;9.90;;;6.17;;
11771;SDS011;12556;55.748;13.194;2023-01-28T02:07:28;9.50;;;5.90;;
11771;SDS011;12556;55.748;13.194;2023-01-28T02:09:56;10.93;;;6.60;;
11771;SDS011;12556;55.748;13.194;2023-01-28T02:12:24;11.17;;;6.33;;
11771;SDS011;12556;55.748;13.194;2023-01-28T02:14:55;8.20;;;5.87;;
11771;SDS011;12556;55.748;13.194;2023-01-28T02:17:24;8.17;;;6.27;;
11771;SDS011;12556;55.748;13.194;2023-01-28T02:19:52;9.30;;;6.47;;
11771;SDS011;12556;55.748;13.194;2023-01-28T02:22:37;10.63;;;7.37;;
11771;SDS011;12556;55.748;13.194;2023-01-28T02:28:19;10.53;;;6.90;;
11771;SDS011;12556;55.748;13.194;2023-01-28T02:30:55;10.90;;;6.43;;
11771;SDS011;12556;55.748;13.194;2023-01-28T02:33:28;7.43;;;6.53;;
11771;SDS011;12556;55.748;13.194;2023-01-28T02:36:02;11.33;;;7.33;;
11771;SDS011;12556;55.748;13.194;2023-01-28T02:38:35;10.07;;;7.50;;
11771;SDS011;12556;55.748;13.194;2023-01-28T02:41:07;10.63;;;7.27;;
11771;SDS011;12556;55.748;13.194;2023-01-28T02:43:41;11.40;;;7.90;;
11771;SDS011;12556;55.748;13.194;2023-01-28T02:46:14;11.17;;;7.87;;
11771;SDS011;12556;55.748;13.194;2023-01-28T02:49:02;10.63;;;7.40;;
11771;SDS011;12556;55.748;13.194;2023-01-28T02:51:36;13.57;;;7.50;;
11771;SDS011;12556;55.748;13.194;2023-01-28T02:54:11;11.73;;;7.73;;
11771;SDS011;12556;55.748;13.194;2023-01-28T02:56:45;10.03;;;7.43;;
11771;SDS011;12556;55.748;13.194;2023-01-28T02:59:21;9.40;;;7.13;;
11771;SDS011;12556;55.748;13.194;2023-01-28T03:01:58;10.10;;;7.13;;
11771;SDS011;12556;55.748;13.194;2023-01-28T03:04:32;11.63;;;7.03;;
11771;SDS011;12556;55.748;13.194;2023-01-28T03:07:04;9.23;;;7.37;;
11771;SDS011;12556;55.748;13.194;2023-01-28T03:09:34;11.87;;;8.03;;
11771;SDS011;12556;55.748;13.194;2023-01-28T03:12:03;11.07;;;7.87;;
11771;SDS011;12556;55.748;13.194;2023-01-28T03:14:53;10.43;;;7.30;;
11771;SDS011;12556;55.748;13.194;2023-01-28T03:17:41;11.67;;;7.37;;
11771;SDS011;12556;55.748;13.194;2023-01-28T03:20:31;8.80;;;6.63;;
11771;SDS011;12556;55.748;13.194;2023-01-28T03:23:21;11.63;;;7.63;;
11771;SDS011;12556;55.748;13.194;2023-01-28T03:26:10;11.73;;;7.63;;
11771;SDS011;12556;55.748;13.194;2023-01-28T03:28:57;12.93;;;8.37;;
11771;SDS011;12556;55.748;13.194;2023-01-28T03:31:48;10.93;;;7.30;;
11771;SDS011;12556;55.748;13.194;2023-01-28T03:34:33;12.57;;;7.67;;
11771;SDS011;12556;55.748;13.194;2023-01-28T03:37:18;13.20;;;7.47;;
11771;SDS011;12556;55.748;13.194;2023-01-28T03:39:45;13.73;;;9.23;;
11771;SDS011;12556;55.748;13.194;2023-01-28T03:42:13;13.47;;;8.30;;
11771;SDS011;12556;55.748;13.194;2023-01-28T03:44:42;10.67;;;7.67;;
11771;SDS011;12556;55.748;13.194;2023-01-28T03:47:15;13.73;;;8.57;;
11771;SDS011;12556;55.748;13.194;2023-01-28T03:49:43;12.37;;;7.97;;
11771;SDS011;12556;55.748;13.194;2023-01-28T03:52:13;11.30;;;8.70;;
11771;SDS011;12556;55.748;13.194;2023-01-28T03:54:40;12.83;;;8.27;;
11771;SDS011;12556;55.748;13.194;2023-01-28T03:57:08;10.00;;;8.43;;
11771;SDS011;12556;55.748;13.194;2023-01-28T03:59:35;10.47;;;7.47;;
11771;SDS011;12556;55.748;13.194;2023-01-28T04:02:02;15.43;;;8.47;;
11771;SDS011;12556;55.748;13.194;2023-01-28T04:04:31;9.20;;;6.87;;
11771;SDS011;12556;55.748;13.194;2023-01-28T04:06:58;15.00;;;9.20;;
11771;SDS011;12556;55.748;13.194;2023-01-28T04:09:25;11.83;;;8.60;;
11771;SDS011;12556;55.748;13.194;2023-01-28T04:11:52;13.67;;;8.60;;
11771;SDS011;12556;55.748;13.194;2023-01-28T04:14:19;11.97;;;8.43;;
11771;SDS011;12556;55.748;13.194;2023-01-28T04:16:46;13.20;;;7.60;;
11771;SDS011;12556;55.748;13.194;2023-01-28T04:19:13;13.17;;;7.90;;
11771;SDS011;12556;55.748;13.194;2023-01-28T04:21:41;13.63;;;7.53;;
11771;SDS011;12556;55.748;13.194;2023-01-28T04:24:08;10.67;;;6.43;;
11771;SDS011;12556;55.748;13.194;2023-01-28T04:26:35;12.17;;;7.47;;
11771;SDS011;12556;55.748;13.194;2023-01-28T04:29:02;10.37;;;7.33;;
11771;SDS011;12556;55.748;13.194;2023-01-28T04:31:29;10.33;;;6.03;;
11771;SDS011;12556;55.748;13.194;2023-01-28T04:33:57;8.90;;;6.20;;
11771;SDS011;12556;55.748;13.194;2023-01-28T04:36:24;7.77;;;6.10;;
11771;SDS011;12556;55.748;13.194;2023-01-28T04:38:53;8.67;;;5.33;;
11771;SDS011;12556;55.748;13.194;2023-01-28T04:41:19;10.10;;;5.00;;
11771;SDS011;12556;55.748;13.194;2023-01-28T04:43:46;8.23;;;5.07;;
11771;SDS011;12556;55.748;13.194;2023-01-28T04:46:14;8.17;;;5.03;;
11771;SDS011;12556;55.748;13.194;2023-01-28T04:48:41;7.43;;;4.87;;
11771;SDS011;12556;55.748;13.194;2023-01-28T04:51:08;8.43;;;5.00;;
11771;SDS011;12556;55.748;13.194;2023-01-28T04:53:35;8.73;;;5.30;;
11771;SDS011;12556;55.748;13.194;2023-01-28T04:56:03;9.27;;;5.27;;
11771;SDS011;12556;55.748;13.194;2023-01-28T04:58:30;8.20;;;4.57;;
11771;SDS011;12556;55.748;13.194;2023-01-28T05:00:57;7.13;;;5.47;;
11771;SDS011;12556;55.748;13.194;2023-01-28T05:03:25;7.40;;;5.30;;
11771;SDS011;12556;55.748;13.194;2023-01-28T05:05:52;6.60;;;4.97;;
11771;SDS011;12556;55.748;13.194;2023-01-28T05:08:19;6.10;;;4.23;;
11771;SDS011;12556;55.748;13.194;2023-01-28T05:10:46;8.83;;;5.40;;
11771;SDS011;12556;55.748;13.194;2023-01-28T05:13:14;8.20;;;4.67;;
11771;SDS011;12556;55.748;13.194;2023-01-28T05:15:41;6.47;;;4.57;;
11771;SDS011;12556;55.748;13.194;2023-01-28T05:18:08;6.47;;;4.73;;
11771;SDS011;12556;55.748;13.194;2023-01-28T05:20:35;5.80;;;4.77;;
11771;SDS011;12556;55.748;13.194;2023-01-28T05:23:02;5.33;;;3.93;;
11771;SDS011;12556;55.748;13.194;2023-01-28T05:25:28;7.07;;;4.97;;
11771;SDS011;12556;55.748;13.194;2023-01-28T05:27:55;6.70;;;5.13;;
11771;SDS011;12556;55.748;13.194;2023-01-28T05:30:23;6.67;;;4.63;;
11771;SDS011;12556;55.748;13.194;2023-01-28T05:32:53;9.10;;;5.17;;
11771;SDS011;12556;55.748;13.194;2023-01-28T05:35:21;5.83;;;4.33;;
11771;SDS011;12556;55.748;13.194;2023-01-28T05:37:48;8.40;;;5.60;;
11771;SDS011;12556;55.748;13.194;2023-01-28T05:40:15;5.67;;;4.57;;
11771;SDS011;12556;55.748;13.194;2023-01-28T05:42:42;8.40;;;4.73;;
11771;SDS011;12556;55.748;13.194;2023-01-28T05:45:09;6.90;;;4.63;;
11771;SDS011;12556;55.748;13.194;2023-01-28T05:47:38;5.03;;;4.13;;
11771;SDS011;12556;55.748;13.194;2023-01-28T05:50:05;9.80;;;5.07;;
11771;SDS011;12556;55.748;13.194;2023-01-28T05:52:33;7.73;;;4.93;;
11771;SDS011;12556;55.748;13.194;2023-01-28T05:55:00;6.50;;;4.37;;
11771;SDS011;12556;55.748;13.194;2023-01-28T05:57:28;8.40;;;4.73;;
11771;SDS011;12556;55.748;13.194;2023-01-28T05:59:55;9.67;;;5.23;;
11771;SDS011;12556;55.748;13.194;2023-01-28T06:02:22;8.17;;;5.53;;
11771;SDS011;12556;55.748;13.194;2023-01-28T06:04:50;8.57;;;5.97;;
11771;SDS011;12556;55.748;13.194;2023-01-28T06:07:17;11.00;;;6.50;;
11771;SDS011;12556;55.748;13.194;2023-01-28T06:09:44;9.73;;;5.80;;
11771;SDS011;12556;55.748;13.194;2023-01-28T06:12:11;13.90;;;7.50;;
11771;SDS011;12556;55.748;13.194;2023-01-28T06:14:38;10.03;;;7.40;;
11771;SDS011;12556;55.748;13.194;2023-01-28T06:17:06;13.00;;;7.13;;
11771;SDS011;12556;55.748;13.194;2023-01-28T06:19:32;13.40;;;8.20;;
11771;SDS011;12556;55.748;13.194;2023-01-28T06:22:01;9.57;;;7.27;;
11771;SDS011;12556;55.748;13.194;2023-01-28T06:24:28;12.67;;;8.17;;
11771;SDS011;12556;55.748;13.194;2023-01-28T06:26:55;12.40;;;8.50;;
11771;SDS011;12556;55.748;13.194;2023-01-28T06:29:22;12.90;;;8.03;;
11771;SDS011;12556;55.748;13.194;2023-01-28T06:31:48;10.50;;;7.43;;
11771;SDS011;12556;55.748;13.194;2023-01-28T06:34:16;13.43;;;8.57;;
11771;SDS011;12556;55.748;13.194;2023-01-28T06:36:43;14.33;;;9.90;;
11771;SDS011;12556;55.748;13.194;2023-01-28T06:39:12;11.07;;;7.80;;
11771;SDS011;12556;55.748;13.194;2023-01-28T06:41:38;11.53;;;8.13;;
11771;SDS011;12556;55.748;13.194;2023-01-28T06:44:06;14.63;;;8.93;;
11771;SDS011;12556;55.748;13.194;2023-01-28T06:46:33;12.93;;;8.77;;
11771;SDS011;12556;55.748;13.194;2023-01-28T06:49:00;11.87;;;8.30;;
11771;SDS011;12556;55.748;13.194;2023-01-28T06:51:27;12.10;;;9.00;;
11771;SDS011;12556;55.748;13.194;2023-01-28T06:53:54;13.23;;;8.87;;
11771;SDS011;12556;55.748;13.194;2023-01-28T06:56:22;11.50;;;8.50;;
11771;SDS011;12556;55.748;13.194;2023-01-28T06:58:49;14.77;;;9.50;;
11771;SDS011;12556;55.748;13.194;2023-01-28T07:01:16;13.43;;;8.33;;
11771;SDS011;12556;55.748;13.194;2023-01-28T07:03:43;11.77;;;8.57;;
11771;SDS011;12556;55.748;13.194;2023-01-28T07:06:10;11.93;;;8.53;;
11771;SDS011;12556;55.748;13.194;2023-01-28T07:08:37;14.87;;;9.57;;
11771;SDS011;12556;55.748;13.194;2023-01-28T07:11:05;12.50;;;7.60;;
11771;SDS011;12556;55.748;13.194;2023-01-28T07:13:34;12.70;;;8.70;;
11771;SDS011;12556;55.748;13.194;2023-01-28T07:16:00;14.60;;;7.50;;
11771;SDS011;12556;55.748;13.194;2023-01-28T07:18:28;11.20;;;7.93;;
11771;SDS011;12556;55.748;13.194;2023-01-28T07:20:55;15.70;;;8.43;;
11771;SDS011;12556;55.748;13.194;2023-01-28T07:23:22;8.83;;;7.50;;
11771;SDS011;12556;55.748;13.194;2023-01-28T07:25:48;16.53;;;8.83;;
11771;SDS011;12556;55.748;13.194;2023-01-28T07:28:16;12.23;;;8.40;;
11771;SDS011;12556;55.748;13.194;2023-01-28T07:30:47;11.97;;;7.70;;
11771;SDS011;12556;55.748;13.194;2023-01-28T07:33:14;15.97;;;9.20;;
11771;SDS011;12556;55.748;13.194;2023-01-28T07:35:42;12.20;;;7.93;;
11771;SDS011;12556;55.748;13.194;2023-01-28T07:38:09;15.67;;;8.97;;
11771;SDS011;12556;55.748;13.194;2023-01-28T07:40:36;16.07;;;9.00;;
11771;SDS011;12556;55.748;13.194;2023-01-28T07:43:03;12.83;;;8.50;;
11771;SDS011;12556;55.748;13.194;2023-01-28T07:45:31;14.90;;;8.70;;
11771;SDS011;12556;55.748;13.194;2023-01-28T07:48:00;13.87;;;8.73;;
11771;SDS011;12556;55.748;13.194;2023-01-28T07:50:29;15.17;;;8.60;;
11771;SDS011;12556;55.748;13.194;2023-01-28T07:52:57;17.67;;;8.83;;
11771;SDS011;12556;55.748;13.194;2023-01-28T07:55:24;16.23;;;8.27;;
11771;SDS011;12556;55.748;13.194;2023-01-28T07:57:52;14.20;;;8.53;;
11771;SDS011;12556;55.748;13.194;2023-01-28T08:00:20;15.03;;;8.60;;
11771;SDS011;12556;55.748;13.194;2023-01-28T08:02:48;12.47;;;8.70;;
11771;SDS011;12556;55.748;13.194;2023-01-28T08:05:18;17.50;;;9.43;;
11771;SDS011;12556;55.748;13.194;2023-01-28T08:07:46;14.57;;;9.63;;
11771;SDS011;12556;55.748;13.194;2023-01-28T08:10:14;17.73;;;9.07;;
11771;SDS011;12556;55.748;13.194;2023-01-28T08:12:49;17.37;;;9.47;;
11771;SDS011;12556;55.748;13.194;2023-01-28T08:15:16;14.73;;;8.83;;
11771;SDS011;12556;55.748;13.194;2023-01-28T08:17:43;13.27;;;9.17;;
11771;SDS011;12556;55.748;13.194;2023-01-28T08:20:10;14.50;;;9.27;;
11771;SDS011;12556;55.748;13.194;2023-01-28T08:22:39;15.00;;;9.20;;
11771;SDS011;12556;55.748;13.194;2023-01-28T08:25:06;16.33;;;9.57;;
11771;SDS011;12556;55.748;13.194;2023-01-28T08:27:33;14.20;;;8.40;;
11771;SDS011;12556;55.748;13.194;2023-01-28T08:30:00;13.90;;;9.07;;
11771;SDS011;12556;55.748;13.194;2023-01-28T08:32:27;13.93;;;9.20;;
11771;SDS011;12556;55.748;13.194;2023-01-28T08:34:54;13.60;;;8.23;;
11771;SDS011;12556;55.748;13.194;2023-01-28T08:37:21;15.93;;;8.97;;
11771;SDS011;12556;55.748;13.194;2023-01-28T08:39:50;14.20;;;8.63;;
11771;SDS011;12556;55.748;13.194;2023-01-28T08:42:16;14.90;;;9.10;;
11771;SDS011;12556;55.748;13.194;2023-01-28T08:44:43;14.73;;;8.50;;
11771;SDS011;12556;55.748;13.194;2023-01-28T08:47:12;11.90;;;8.80;;
11771;SDS011;12556;55.748;13.194;2023-01-28T08:49:38;10.73;;;7.50;;
11771;SDS011;12556;55.748;13.194;2023-01-28T08:52:06;12.53;;;7.20;;
11771;SDS011;12556;55.748;13.194;2023-01-28T08:54:32;11.47;;;7.63;;
11771;SDS011;12556;55.748;13.194;2023-01-28T08:57:01;10.30;;;7.33;;
11771;SDS011;12556;55.748;13.194;2023-01-28T08:59:28;12.70;;;7.57;;
11771;SDS011;12556;55.748;13.194;2023-01-28T09:01:55;10.77;;;7.33;;
11771;SDS011;12556;55.748;13.194;2023-01-28T09:04:22;9.07;;;6.47;;
11771;SDS011;12556;55.748;13.194;2023-01-28T09:06:49;12.63;;;6.57;;
11771;SDS011;12556;55.748;13.194;2023-01-28T09:09:16;11.10;;;7.67;;
11771;SDS011;12556;55.748;13.194;2023-01-28T09:11:43;12.20;;;6.57;;
11771;SDS011;12556;55.748;13.194;2023-01-28T09:14:11;12.40;;;7.43;;
11771;SDS011;12556;55.748;13.194;2023-01-28T09:16:38;10.63;;;6.67;;
11771;SDS011;12556;55.748;13.194;2023-01-28T09:19:05;12.97;;;7.70;;
11771;SDS011;12556;55.748;13.194;2023-01-28T09:21:32;11.47;;;8.00;;
11771;SDS011;12556;55.748;13.194;2023-01-28T09:23:59;14.60;;;7.07;;
11771;SDS011;12556;55.748;13.194;2023-01-28T09:26:26;10.03;;;6.67;;
11771;SDS011;12556;55.748;13.194;2023-01-28T09:28:53;10.80;;;6.80;;
11771;SDS011;12556;55.748;13.194;2023-01-28T09:31:21;9.27;;;7.10;;
11771;SDS011;12556;55.748;13.194;2023-01-28T09:33:48;9.07;;;6.20;;
11771;SDS011;12556;55.748;13.194;2023-01-28T09:36:20;10.40;;;6.33;;
11771;SDS011;12556;55.748;13.194;2023-01-28T09:38:48;11.57;;;7.13;;
11771;SDS011;12556;55.748;13.194;2023-01-28T09:41:23;9.53;;;6.70;;
11771;SDS011;12556;55.748;13.194;2023-01-28T09:44:02;10.10;;;6.97;;
11771;SDS011;12556;55.748;13.194;2023-01-28T09:46:34;8.87;;;6.77;;
11771;SDS011;12556;55.748;13.194;2023-01-28T09:49:04;11.47;;;6.67;;
11771;SDS011;12556;55.748;13.194;2023-01-28T09:51:40;9.80;;;6.30;;
11771;SDS011;12556;55.748;13.194;2023-01-28T09:54:11;10.90;;;7.40;;
11771;SDS011;12556;55.748;13.194;2023-01-28T09:56:47;8.83;;;7.47;;
11771;SDS011;12556;55.748;13.194;2023-01-28T09:59:21;9.93;;;7.13;;
11771;SDS011;12556;55.748;13.194;2023-01-28T10:01:53;10.67;;;7.43;;
11771;SDS011;12556;55.748;13.194;2023-01-28T10:04:27;9.80;;;6.60;;
11771;SDS011;12556;55.748;13.194;2023-01-28T10:07:09;9.13;;;6.87;;
11771;SDS011;12556;55.748;13.194;2023-01-28T10:09:47;9.83;;;6.27;;
11771;SDS011;12556;55.748;13.194;2023-01-28T10:12:23;9.40;;;5.87;;
11771;SDS011;12556;55.748;13.194;2023-01-28T10:15:05;11.27;;;6.80;;
11771;SDS011;12556;55.748;13.194;2023-01-28T10:17:51;9.40;;;7.03;;
11771;SDS011;12556;55.748;13.194;2023-01-28T10:20:22;9.87;;;6.80;;
11771;SDS011;12556;55.748;13.194;2023-01-28T10:22:55;7.83;;;5.87;;
11771;SDS011;12556;55.748;13.194;2023-01-28T10:25:27;12.43;;;6.67;;
11771;SDS011;12556;55.748;13.194;2023-01-28T10:27:56;7.93;;;6.77;;
11771;SDS011;12556;55.748;13.194;2023-01-28T10:30:26;8.57;;;5.70;;
11771;SDS011;12556;55.748;13.194;2023-01-28T10:32:58;7.67;;;5.53;;
11771;SDS011;12556;55.748;13.194;2023-01-28T10:35:29;8.30;;;5.70;;
11771;SDS011;12556;55.748;13.194;2023-01-28T10:38:01;9.67;;;6.97;;
11771;SDS011;12556;55.748;13.194;2023-01-28T10:40:33;9.63;;;7.10;;
11771;SDS011;12556;55.748;13.194;2023-01-28T10:43:01;8.20;;;6.13;;
11771;SDS011;12556;55.748;13.194;2023-01-28T10:45:29;9.07;;;5.90;;
11771;SDS011;12556;55.748;13.194;2023-01-28T10:48:02;10.63;;;6.37;;
11771;SDS011;12556;55.748;13.194;2023-01-28T10:50:34;9.33;;;6.73;;
11771;SDS011;12556;55.748;13.194;2023-01-28T10:53:01;10.40;;;6.87;;
11771;SDS011;12556;55.748;13.194;2023-01-28T10:55:30;10.17;;;6.80;;
11771;SDS011;12556;55.748;13.194;2023-01-28T10:58:02;11.30;;;7.00;;
11771;SDS011;12556;55.748;13.194;2023-01-28T11:00:33;11.47;;;7.10;;
11771;SDS011;12556;55.748;13.194;2023-01-28T11:03:03;11.33;;;7.20;;
11771;SDS011;12556;55.748;13.194;2023-01-28T11:05:30;10.50;;;6.93;;
11771;SDS011;12556;55.748;13.194;2023-01-28T11:08:04;7.90;;;6.47;;
11771;SDS011;12556;55.748;13.194;2023-01-28T11:10:38;10.03;;;6.60;;
11771;SDS011;12556;55.748;13.194;2023-01-28T11:13:14;8.20;;;6.67;;
11771;SDS011;12556;55.748;13.194;2023-01-28T11:15:45;9.70;;;6.87;;
11771;SDS011;12556;55.748;13.194;2023-01-28T11:18:16;13.20;;;6.93;;
11771;SDS011;12556;55.748;13.194;2023-01-28T11:20:50;10.83;;;6.70;;
11771;SDS011;12556;55.748;13.194;2023-01-28T11:23:21;8.40;;;6.37;;
11771;SDS011;12556;55.748;13.194;2023-01-28T11:25:58;10.07;;;6.53;;
11771;SDS011;12556;55.748;13.194;2023-01-28T11:28:27;8.73;;;6.03;;
11771;SDS011;12556;55.748;13.194;2023-01-28T11:30:55;9.60;;;6.27;;
11771;SDS011;12556;55.748;13.194;2023-01-28T11:33:27;7.70;;;6.00;;
11771;SDS011;12556;55.748;13.194;2023-01-28T11:36:04;7.23;;;6.07;;
11771;SDS011;12556;55.748;13.194;2023-01-28T11:38:33;9.50;;;6.00;;
11771;SDS011;12556;55.748;13.194;2023-01-28T11:41:00;10.33;;;7.03;;
11771;SDS011;12556;55.748;13.194;2023-01-28T11:43:28;8.90;;;6.00;;
11771;SDS011;12556;55.748;13.194;2023-01-28T11:45:59;11.27;;;6.57;;
11771;SDS011;12556;55.748;13.194;2023-01-28T11:48:40;9.03;;;6.40;;
11771;SDS011;12556;55.748;13.194;2023-01-28T11:51:20;8.67;;;5.97;;
11771;SDS011;12556;55.748;13.194;2023-01-28T11:53:58;9.57;;;6.00;;
11771;SDS011;12556;55.748;13.194;2023-01-28T11:56:50;10.77;;;5.70;;
11771;SDS011;12556;55.748;13.194;2023-01-28T11:59:32;11.37;;;6.17;;
11771;SDS011;12556;55.748;13.194;2023-01-28T12:02:17;8.87;;;5.60;;
11771;SDS011;12556;55.748;13.194;2023-01-28T12:05:02;9.30;;;6.13;;
11771;SDS011;12556;55.748;13.194;2023-01-28T12:07:43;7.63;;;5.73;;
11771;SDS011;12556;55.748;13.194;2023-01-28T12:10:18;9.73;;;5.90;;
11771;SDS011;12556;55.748;13.194;2023-01-28T12:12:56;7.93;;;5.73;;
11771;SDS011;12556;55.748;13.194;2023-01-28T12:18:39;7.73;;;5.03;;
11771;SDS011;12556;55.748;13.194;2023-01-28T12:21:19;9.17;;;6.23;;
11771;SDS011;12556;55.748;13.194;2023-01-28T12:23:57;8.07;;;5.20;;
11771;SDS011;12556;55.748;13.194;2023-01-28T12:26:39;8.50;;;6.07;;
11771;SDS011;12556;55.748;13.194;2023-01-28T12:29:17;10.30;;;5.43;;
11771;SDS011;12556;55.748;13.194;2023-01-28T12:31:53;8.10;;;5.63;;
11771;SDS011;12556;55.748;13.194;2023-01-28T12:34:57;6.40;;;5.37;;
11771;SDS011;12556;55.748;13.194;2023-01-28T12:37:44;9.43;;;5.77;;
11771;SDS011;12556;55.748;13.194;2023-01-28T12:40:31;7.73;;;5.07;;
11771;SDS011;12556;55.748;13.194;2023-01-28T12:43:14;7.50;;;5.80;;
11771;SDS011;12556;55.748;13.194;2023-01-28T12:45:48;9.23;;;6.10;;
11771;SDS011;12556;55.748;13.194;2023-01-28T12:48:21;7.50;;;5.97;;
11771;SDS011;12556;55.748;13.194;2023-01-28T12:50:53;10.17;;;6.07;;
11771;SDS011;12556;55.748;13.194;2023-01-28T12:53:26;9.43;;;6.23;;
11771;SDS011;12556;55.748;13.194;2023-01-28T12:55:59;11.00;;;5.67;;
11771;SDS011;12556;55.748;13.194;2023-01-28T12:58:34;18.40;;;12.70;;
11771;SDS011;12556;55.748;13.194;2023-01-28T13:01:06;11.10;;;7.10;;
11771;SDS011;12556;55.748;13.194;2023-01-28T13:03:38;6.97;;;5.27;;
11771;SDS011;12556;55.748;13.194;2023-01-28T13:06:10;8.67;;;5.23;;
11771;SDS011;12556;55.748;13.194;2023-01-28T13:08:41;13.33;;;6.17;;
11771;SDS011;12556;55.748;13.194;2023-01-28T13:11:11;9.27;;;6.03;;
11771;SDS011;12556;55.748;13.194;2023-01-28T13:13:41;10.07;;;6.43;;
11771;SDS011;12556;55.748;13.194;2023-01-28T13:16:10;7.63;;;5.90;;
11771;SDS011;12556;55.748;13.194;2023-01-28T13:18:44;9.57;;;5.40;;
11771;SDS011;12556;55.748;13.194;2023-01-28T13:21:13;9.20;;;5.63;;
11771;SDS011;12556;55.748;13.194;2023-01-28T13:23:44;7.63;;;6.03;;
11771;SDS011;12556;55.748;13.194;2023-01-28T13:26:26;9.17;;;6.70;;
11771;SDS011;12556;55.748;13.194;2023-01-28T13:29:05;10.57;;;5.50;;
11771;SDS011;12556;55.748;13.194;2023-01-28T13:31:44;8.30;;;5.93;;
11771;SDS011;12556;55.748;13.194;2023-01-28T13:37:01;11.00;;;6.13;;
11771;SDS011;12556;55.748;13.194;2023-01-28T13:39:34;7.40;;;6.40;;
11771;SDS011;12556;55.748;13.194;2023-01-28T13:42:09;9.70;;;6.00;;
11771;SDS011;12556;55.748;13.194;2023-01-28T13:44:46;8.43;;;6.43;;
11771;SDS011;12556;55.748;13.194;2023-01-28T13:47:17;9.40;;;5.83;;
11771;SDS011;12556;55.748;13.194;2023-01-28T13:49:48;8.03;;;5.87;;
11771;SDS011;12556;55.748;13.194;2023-01-28T13:52:22;8.23;;;6.07;;
11771;SDS011;12556;55.748;13.194;2023-01-28T13:54:55;8.00;;;6.53;;
11771;SDS011;12556;55.748;13.194;2023-01-28T13:57:46;10.73;;;6.23;;
11771;SDS011;12556;55.748;13.194;2023-01-28T14:00:44;9.17;;;6.33;;
11771;SDS011;12556;55.748;13.194;2023-01-28T14:03:33;10.40;;;6.47;;
11771;SDS011;12556;55.748;13.194;2023-01-28T14:06:30;10.27;;;6.60;;
11771;SDS011;12556;55.748;13.194;2023-01-28T14:09:35;8.77;;;6.23;;
11771;SDS011;12556;55.748;13.194;2023-01-28T14:15:28;8.90;;;6.07;;
11771;SDS011;12556;55.748;13.194;2023-01-28T14:18:13;10.23;;;6.00;;
11771;SDS011;12556;55.748;13.194;2023-01-28T14:20:46;10.27;;;6.90;;
11771;SDS011;12556;55.748;13.194;2023-01-28T14:23:15;7.70;;;5.83;;
11771;SDS011;12556;55.748;13.194;2023-01-28T14:25:49;8.83;;;6.13;;
11771;SDS011;12556;55.748;13.194;2023-01-28T14:28:30;10.07;;;5.90;;
11771;SDS011;12556;55.748;13.194;2023-01-28T14:31:05;11.03;;;6.53;;
11771;SDS011;12556;55.748;13.194;2023-01-28T14:33:36;10.83;;;6.63;;
11771;SDS011;12556;55.748;13.194;2023-01-28T14:36:04;8.90;;;6.13;;
11771;SDS011;12556;55.748;13.194;2023-01-28T14:38:36;9.70;;;6.40;;
11771;SDS011;12556;55.748;13.194;2023-01-28T14:41:04;8.03;;;6.27;;
11771;SDS011;12556;55.748;13.194;2023-01-28T14:43:34;10.33;;;6.80;;
11771;SDS011;12556;55.748;13.194;2023-01-28T14:46:07;8.17;;;6.10;;
11771;SDS011;12556;55.748;13.194;2023-01-28T14:48:43;13.30;;;6.70;;
11771;SDS011;12556;55.748;13.194;2023-01-28T14:51:22;9.20;;;6.10;;
11771;SDS011;12556;55.748;13.194;2023-01-28T14:54:21;8.87;;;6.77;;
11771;SDS011;12556;55.748;13.194;2023-01-28T15:00:13;9.83;;;6.47;;
11771;SDS011;12556;55.748;13.194;2023-01-28T15:02:43;10.30;;;6.60;;
11771;SDS011;12556;55.748;13.194;2023-01-28T15:05:13;10.50;;;6.17;;
11771;SDS011;12556;55.748;13.194;2023-01-28T15:07:42;11.40;;;6.87;;